sensor_id;sensor_type;location;lat;lon;timestamp;P1;durP1;ratioP1;P2;durP2;ratioP2
39156;SDS011;24889;42.424;25.604;2022-10-31T00:02:04;8.27;;;2.00;;
39156;SDS011;24889;42.424;25.604;2022-10-31T00:04:29;5.80;;;2.40;;
39156;SDS011;24889;42.424;25.604;2022-10-31T00:06:55;7.40;;;2.13;;
39156;SDS011;24889;42.424;25.604;2022-10-31T00:09:20;5.83;;;2.73;;
39156;SDS011;24889;42.424;25.604;2022-10-31T00:11:46;10.67;;;1.97;;
39156;SDS011;24889;42.424;25.604;2022-10-31T00:14:12;5.95;;;2.00;;
39156;SDS011;24889;42.424;25.604;2022-10-31T00:16:37;11.70;;;2.53;;
39156;SDS011;24889;42.424;25.604;2022-10-31T00:19:03;8.23;;;2.37;;
39156;SDS011;24889;42.424;25.604;2022-10-31T00:21:31;7.28;;;2.92;;
39156;SDS011;24889;42.424;25.604;2022-10-31T00:23:58;4.32;;;2.60;;
39156;SDS011;24889;42.424;25.604;2022-10-31T00:26:26;8.93;;;3.92;;
39156;SDS011;24889;42.424;25.604;2022-10-31T00:28:52;8.32;;;3.33;;
39156;SDS011;24889;42.424;25.604;2022-10-31T00:31:18;9.90;;;3.57;;
39156;SDS011;24889;42.424;25.604;2022-10-31T00:33:43;10.90;;;4.27;;
39156;SDS011;24889;42.424;25.604;2022-10-31T00:36:13;7.20;;;4.22;;
39156;SDS011;24889;42.424;25.604;2022-10-31T00:38:41;8.10;;;4.10;;
39156;SDS011;24889;42.424;25.604;2022-10-31T00:41:07;9.02;;;3.63;;
39156;SDS011;24889;42.424;25.604;2022-10-31T00:43:33;7.55;;;3.33;;
39156;SDS011;24889;42.424;25.604;2022-10-31T00:45:59;10.07;;;3.73;;
39156;SDS011;24889;42.424;25.604;2022-10-31T00:48:24;11.00;;;4.03;;
39156;SDS011;24889;42.424;25.604;2022-10-31T00:50:50;11.07;;;3.67;;
39156;SDS011;24889;42.424;25.604;2022-10-31T00:53:15;6.23;;;4.17;;
39156;SDS011;24889;42.424;25.604;2022-10-31T00:55:41;7.43;;;3.60;;
39156;SDS011;24889;42.424;25.604;2022-10-31T00:58:06;11.13;;;4.40;;
39156;SDS011;24889;42.424;25.604;2022-10-31T01:00:32;8.33;;;4.07;;
39156;SDS011;24889;42.424;25.604;2022-10-31T01:02:57;9.98;;;5.03;;
39156;SDS011;24889;42.424;25.604;2022-10-31T01:05:23;10.40;;;4.10;;
39156;SDS011;24889;42.424;25.604;2022-10-31T01:07:48;12.90;;;4.17;;
39156;SDS011;24889;42.424;25.604;2022-10-31T01:10:13;8.00;;;4.20;;
39156;SDS011;24889;42.424;25.604;2022-10-31T01:12:40;7.15;;;3.58;;
39156;SDS011;24889;42.424;25.604;2022-10-31T01:15:07;6.53;;;4.07;;
39156;SDS011;24889;42.424;25.604;2022-10-31T01:17:34;9.60;;;4.10;;
39156;SDS011;24889;42.424;25.604;2022-10-31T01:19:59;9.10;;;3.83;;
39156;SDS011;24889;42.424;25.604;2022-10-31T01:22:25;6.70;;;3.33;;
39156;SDS011;24889;42.424;25.604;2022-10-31T01:24:51;10.47;;;4.00;;
39156;SDS011;24889;42.424;25.604;2022-10-31T01:27:16;11.77;;;4.43;;
39156;SDS011;24889;42.424;25.604;2022-10-31T01:29:41;6.03;;;3.70;;
39156;SDS011;24889;42.424;25.604;2022-10-31T01:32:07;11.67;;;4.10;;
39156;SDS011;24889;42.424;25.604;2022-10-31T01:34:32;6.77;;;3.83;;
39156;SDS011;24889;42.424;25.604;2022-10-31T01:36:58;9.13;;;3.70;;
39156;SDS011;24889;42.424;25.604;2022-10-31T01:39:23;7.00;;;3.30;;
39156;SDS011;24889;42.424;25.604;2022-10-31T01:41:50;8.37;;;3.90;;
39156;SDS011;24889;42.424;25.604;2022-10-31T01:46:50;5.70;;;3.20;;
39156;SDS011;24889;42.424;25.604;2022-10-31T01:49:33;9.02;;;5.05;;
39156;SDS011;24889;42.424;25.604;2022-10-31T01:54:53;14.77;;;4.13;;
39156;SDS011;24889;42.424;25.604;2022-10-31T01:57:24;8.38;;;3.92;;
39156;SDS011;24889;42.424;25.604;2022-10-31T01:59:52;7.88;;;3.00;;
39156;SDS011;24889;42.424;25.604;2022-10-31T02:02:22;8.88;;;3.63;;
39156;SDS011;24889;42.424;25.604;2022-10-31T02:04:49;10.90;;;4.35;;
39156;SDS011;24889;42.424;25.604;2022-10-31T02:07:16;5.88;;;3.63;;
39156;SDS011;24889;42.424;25.604;2022-10-31T02:09:46;7.85;;;4.10;;
39156;SDS011;24889;42.424;25.604;2022-10-31T02:12:14;9.35;;;3.90;;
39156;SDS011;24889;42.424;25.604;2022-10-31T02:14:40;7.85;;;3.55;;
39156;SDS011;24889;42.424;25.604;2022-10-31T02:17:06;6.75;;;3.55;;
39156;SDS011;24889;42.424;25.604;2022-10-31T02:33:53;9.40;;;4.30;;
39156;SDS011;24889;42.424;25.604;2022-10-31T02:36:43;8.23;;;3.80;;
39156;SDS011;24889;42.424;25.604;2022-10-31T02:39:18;10.13;;;4.47;;
39156;SDS011;24889;42.424;25.604;2022-10-31T02:45:45;7.60;;;4.15;;
39156;SDS011;24889;42.424;25.604;2022-10-31T02:47:53;7.22;;;3.33;;
39156;SDS011;24889;42.424;25.604;2022-10-31T02:50:27;15.55;;;4.07;;
39156;SDS011;24889;42.424;25.604;2022-10-31T02:52:56;10.90;;;3.92;;
39156;SDS011;24889;42.424;25.604;2022-10-31T02:57:47;14.73;;;3.70;;
39156;SDS011;24889;42.424;25.604;2022-10-31T03:00:14;7.22;;;3.30;;
39156;SDS011;24889;42.424;25.604;2022-10-31T03:08:08;8.93;;;3.92;;
39156;SDS011;24889;42.424;25.604;2022-10-31T03:10:44;10.63;;;3.75;;
39156;SDS011;24889;42.424;25.604;2022-10-31T03:15:49;10.57;;;3.97;;
39156;SDS011;24889;42.424;25.604;2022-10-31T03:18:29;7.18;;;3.80;;
39156;SDS011;24889;42.424;25.604;2022-10-31T03:21:07;6.80;;;3.95;;
39156;SDS011;24889;42.424;25.604;2022-10-31T03:23:39;10.52;;;3.72;;
39156;SDS011;24889;42.424;25.604;2022-10-31T03:26:08;7.28;;;2.97;;
39156;SDS011;24889;42.424;25.604;2022-10-31T03:28:43;10.27;;;4.65;;
39156;SDS011;24889;42.424;25.604;2022-10-31T03:31:16;10.25;;;4.35;;
39156;SDS011;24889;42.424;25.604;2022-10-31T03:33:43;12.77;;;3.78;;
39156;SDS011;24889;42.424;25.604;2022-10-31T03:36:11;11.45;;;4.20;;
39156;SDS011;24889;42.424;25.604;2022-10-31T03:38:41;10.90;;;4.05;;
39156;SDS011;24889;42.424;25.604;2022-10-31T03:41:11;8.75;;;4.28;;
39156;SDS011;24889;42.424;25.604;2022-10-31T03:43:42;7.60;;;3.47;;
39156;SDS011;24889;42.424;25.604;2022-10-31T03:46:19;8.95;;;3.15;;
39156;SDS011;24889;42.424;25.604;2022-10-31T03:48:45;8.10;;;3.42;;
39156;SDS011;24889;42.424;25.604;2022-10-31T03:53:52;9.77;;;4.88;;
39156;SDS011;24889;42.424;25.604;2022-10-31T03:56:43;15.27;;;4.20;;
39156;SDS011;24889;42.424;25.604;2022-10-31T03:59:21;10.63;;;4.05;;
39156;SDS011;24889;42.424;25.604;2022-10-31T04:01:52;13.30;;;4.47;;
39156;SDS011;24889;42.424;25.604;2022-10-31T04:04:25;7.43;;;3.03;;
39156;SDS011;24889;42.424;25.604;2022-10-31T04:06:52;12.70;;;5.68;;
39156;SDS011;24889;42.424;25.604;2022-10-31T04:09:19;8.95;;;5.60;;
39156;SDS011;24889;42.424;25.604;2022-10-31T04:14:13;12.38;;;6.20;;
39156;SDS011;24889;42.424;25.604;2022-10-31T04:16:43;16.02;;;6.00;;
39156;SDS011;24889;42.424;25.604;2022-10-31T04:19:09;17.17;;;6.45;;
39156;SDS011;24889;42.424;25.604;2022-10-31T04:21:36;9.88;;;5.10;;
39156;SDS011;24889;42.424;25.604;2022-10-31T04:24:01;12.68;;;5.00;;
39156;SDS011;24889;42.424;25.604;2022-10-31T04:26:27;9.60;;;4.80;;
39156;SDS011;24889;42.424;25.604;2022-10-31T04:28:52;12.13;;;5.70;;
39156;SDS011;24889;42.424;25.604;2022-10-31T04:31:18;12.67;;;5.67;;
39156;SDS011;24889;42.424;25.604;2022-10-31T04:33:43;11.03;;;5.90;;
39156;SDS011;24889;42.424;25.604;2022-10-31T04:36:09;12.50;;;5.97;;
39156;SDS011;24889;42.424;25.604;2022-10-31T04:38:35;9.73;;;4.38;;
39156;SDS011;24889;42.424;25.604;2022-10-31T04:41:00;9.30;;;5.57;;
39156;SDS011;24889;42.424;25.604;2022-10-31T04:43:25;9.93;;;4.90;;
39156;SDS011;24889;42.424;25.604;2022-10-31T04:45:51;14.00;;;6.33;;
39156;SDS011;24889;42.424;25.604;2022-10-31T04:48:16;15.57;;;5.20;;
39156;SDS011;24889;42.424;25.604;2022-10-31T04:50:42;18.67;;;5.45;;
39156;SDS011;24889;42.424;25.604;2022-10-31T04:53:08;13.80;;;6.77;;
39156;SDS011;24889;42.424;25.604;2022-10-31T04:55:34;14.90;;;4.40;;
39156;SDS011;24889;42.424;25.604;2022-10-31T04:58:00;9.75;;;3.75;;
39156;SDS011;24889;42.424;25.604;2022-10-31T05:00:26;8.33;;;3.40;;
39156;SDS011;24889;42.424;25.604;2022-10-31T05:02:52;14.57;;;4.93;;
39156;SDS011;24889;42.424;25.604;2022-10-31T05:05:23;8.48;;;3.80;;
39156;SDS011;24889;42.424;25.604;2022-10-31T05:07:51;10.50;;;4.35;;
39156;SDS011;24889;42.424;25.604;2022-10-31T05:10:18;9.60;;;4.75;;
39156;SDS011;24889;42.424;25.604;2022-10-31T05:12:46;15.80;;;5.97;;
39156;SDS011;24889;42.424;25.604;2022-10-31T05:17:48;13.15;;;5.00;;
39156;SDS011;24889;42.424;25.604;2022-10-31T05:20:15;17.58;;;5.30;;
39156;SDS011;24889;42.424;25.604;2022-10-31T05:22:43;18.58;;;5.40;;
39156;SDS011;24889;42.424;25.604;2022-10-31T05:25:13;15.60;;;7.22;;
39156;SDS011;24889;42.424;25.604;2022-10-31T05:27:42;13.75;;;6.68;;
39156;SDS011;24889;42.424;25.604;2022-10-31T05:30:11;16.10;;;5.78;;
39156;SDS011;24889;42.424;25.604;2022-10-31T05:32:41;15.93;;;5.80;;
39156;SDS011;24889;42.424;25.604;2022-10-31T05:35:10;16.88;;;6.78;;
39156;SDS011;24889;42.424;25.604;2022-10-31T05:37:37;13.27;;;4.85;;
39156;SDS011;24889;42.424;25.604;2022-10-31T05:40:03;10.75;;;4.00;;
39156;SDS011;24889;42.424;25.604;2022-10-31T05:42:30;12.07;;;4.70;;
39156;SDS011;24889;42.424;25.604;2022-10-31T05:44:55;16.67;;;6.10;;
39156;SDS011;24889;42.424;25.604;2022-10-31T05:47:21;21.03;;;7.73;;
39156;SDS011;24889;42.424;25.604;2022-10-31T05:49:46;14.50;;;5.60;;
39156;SDS011;24889;42.424;25.604;2022-10-31T05:52:12;11.70;;;6.23;;
39156;SDS011;24889;42.424;25.604;2022-10-31T05:54:37;15.20;;;5.72;;
39156;SDS011;24889;42.424;25.604;2022-10-31T05:57:03;14.77;;;5.33;;
39156;SDS011;24889;42.424;25.604;2022-10-31T05:59:28;14.10;;;5.17;;
39156;SDS011;24889;42.424;25.604;2022-10-31T06:01:54;7.53;;;4.20;;
39156;SDS011;24889;42.424;25.604;2022-10-31T06:04:19;37.70;;;7.57;;
39156;SDS011;24889;42.424;25.604;2022-10-31T06:06:45;57.30;;;7.97;;
39156;SDS011;24889;42.424;25.604;2022-10-31T06:09:10;28.77;;;6.87;;
39156;SDS011;24889;42.424;25.604;2022-10-31T06:11:36;50.55;;;7.57;;
39156;SDS011;24889;42.424;25.604;2022-10-31T06:14:02;25.43;;;5.63;;
39156;SDS011;24889;42.424;25.604;2022-10-31T06:16:28;17.40;;;5.53;;
39156;SDS011;24889;42.424;25.604;2022-10-31T06:18:53;19.80;;;6.57;;
39156;SDS011;24889;42.424;25.604;2022-10-31T06:21:18;19.40;;;5.83;;
39156;SDS011;24889;42.424;25.604;2022-10-31T06:23:44;15.63;;;6.73;;
39156;SDS011;24889;42.424;25.604;2022-10-31T06:26:09;14.50;;;5.20;;
39156;SDS011;24889;42.424;25.604;2022-10-31T06:28:35;405.30;;;68.03;;
39156;SDS011;24889;42.424;25.604;2022-10-31T06:31:00;517.63;;;97.57;;
39156;SDS011;24889;42.424;25.604;2022-10-31T06:33:26;332.77;;;64.13;;
39156;SDS011;24889;42.424;25.604;2022-10-31T06:35:51;174.43;;;26.37;;
39156;SDS011;24889;42.424;25.604;2022-10-31T06:38:17;61.57;;;14.33;;
39156;SDS011;24889;42.424;25.604;2022-10-31T06:40:42;38.05;;;9.52;;
39156;SDS011;24889;42.424;25.604;2022-10-31T06:43:08;24.40;;;7.68;;
39156;SDS011;24889;42.424;25.604;2022-10-31T06:45:33;20.63;;;6.40;;
39156;SDS011;24889;42.424;25.604;2022-10-31T06:47:59;17.73;;;6.63;;
39156;SDS011;24889;42.424;25.604;2022-10-31T06:50:24;17.02;;;5.78;;
39156;SDS011;24889;42.424;25.604;2022-10-31T06:52:51;24.77;;;9.10;;
39156;SDS011;24889;42.424;25.604;2022-10-31T06:55:17;36.17;;;10.80;;
39156;SDS011;24889;42.424;25.604;2022-10-31T06:57:55;19.92;;;9.32;;
39156;SDS011;24889;42.424;25.604;2022-10-31T07:00:22;22.95;;;9.68;;
39156;SDS011;24889;42.424;25.604;2022-10-31T07:02:52;27.63;;;9.27;;
39156;SDS011;24889;42.424;25.604;2022-10-31T07:05:26;18.67;;;8.15;;
39156;SDS011;24889;42.424;25.604;2022-10-31T07:07:56;21.20;;;7.90;;
39156;SDS011;24889;42.424;25.604;2022-10-31T07:10:23;27.67;;;8.60;;
39156;SDS011;24889;42.424;25.604;2022-10-31T07:12:57;15.40;;;6.82;;
39156;SDS011;24889;42.424;25.604;2022-10-31T07:15:24;14.80;;;5.97;;
39156;SDS011;24889;42.424;25.604;2022-10-31T07:17:51;17.45;;;6.40;;
39156;SDS011;24889;42.424;25.604;2022-10-31T07:22:42;22.02;;;7.97;;
39156;SDS011;24889;42.424;25.604;2022-10-31T07:27:37;20.92;;;7.10;;
39156;SDS011;24889;42.424;25.604;2022-10-31T07:30:04;19.20;;;6.38;;
39156;SDS011;24889;42.424;25.604;2022-10-31T07:32:43;14.20;;;6.85;;
39156;SDS011;24889;42.424;25.604;2022-10-31T07:35:11;16.80;;;5.75;;
39156;SDS011;24889;42.424;25.604;2022-10-31T07:37:39;15.15;;;6.43;;
39156;SDS011;24889;42.424;25.604;2022-10-31T07:40:04;24.58;;;6.22;;
39156;SDS011;24889;42.424;25.604;2022-10-31T07:42:35;11.55;;;4.80;;
39156;SDS011;24889;42.424;25.604;2022-10-31T07:45:02;17.02;;;6.15;;
39156;SDS011;24889;42.424;25.604;2022-10-31T07:47:28;18.58;;;6.00;;
39156;SDS011;24889;42.424;25.604;2022-10-31T07:49:54;14.32;;;5.70;;
39156;SDS011;24889;42.424;25.604;2022-10-31T07:52:19;11.07;;;4.78;;
39156;SDS011;24889;42.424;25.604;2022-10-31T07:59:35;15.80;;;4.43;;
39156;SDS011;24889;42.424;25.604;2022-10-31T08:02:00;16.10;;;5.60;;
39156;SDS011;24889;42.424;25.604;2022-10-31T08:09:16;16.07;;;5.27;;
39156;SDS011;24889;42.424;25.604;2022-10-31T08:14:08;17.90;;;6.53;;
39156;SDS011;24889;42.424;25.604;2022-10-31T08:16:34;17.77;;;6.28;;
39156;SDS011;24889;42.424;25.604;2022-10-31T08:19:02;21.98;;;7.18;;
39156;SDS011;24889;42.424;25.604;2022-10-31T08:26:18;16.93;;;6.50;;
39156;SDS011;24889;42.424;25.604;2022-10-31T08:33:35;18.90;;;7.43;;
39156;SDS011;24889;42.424;25.604;2022-10-31T08:40:51;14.97;;;6.17;;
39156;SDS011;24889;42.424;25.604;2022-10-31T08:45:43;17.73;;;7.03;;
39156;SDS011;24889;42.424;25.604;2022-10-31T08:48:13;17.73;;;6.03;;
39156;SDS011;24889;42.424;25.604;2022-10-31T08:50:40;13.30;;;6.65;;
39156;SDS011;24889;42.424;25.604;2022-10-31T08:53:07;17.55;;;6.60;;
39156;SDS011;24889;42.424;25.604;2022-10-31T08:55:38;20.17;;;6.90;;
39156;SDS011;24889;42.424;25.604;2022-10-31T08:58:05;10.13;;;5.10;;
39156;SDS011;24889;42.424;25.604;2022-10-31T09:00:32;14.60;;;4.70;;
39156;SDS011;24889;42.424;25.604;2022-10-31T09:03:03;12.50;;;5.13;;
39156;SDS011;24889;42.424;25.604;2022-10-31T09:05:31;8.80;;;4.47;;
39156;SDS011;24889;42.424;25.604;2022-10-31T09:07:58;6.72;;;3.60;;
39156;SDS011;24889;42.424;25.604;2022-10-31T09:10:24;14.10;;;4.10;;
39156;SDS011;24889;42.424;25.604;2022-10-31T09:12:54;6.07;;;3.63;;
39156;SDS011;24889;42.424;25.604;2022-10-31T09:15:21;18.50;;;4.85;;
39156;SDS011;24889;42.424;25.604;2022-10-31T09:17:47;9.02;;;4.15;;
39156;SDS011;24889;42.424;25.604;2022-10-31T09:20:13;7.38;;;3.50;;
39156;SDS011;24889;42.424;25.604;2022-10-31T09:22:39;7.63;;;3.60;;
39156;SDS011;24889;42.424;25.604;2022-10-31T09:25:04;8.63;;;3.88;;
39156;SDS011;24889;42.424;25.604;2022-10-31T09:27:30;12.13;;;4.28;;
39156;SDS011;24889;42.424;25.604;2022-10-31T09:29:55;9.65;;;4.15;;
39156;SDS011;24889;42.424;25.604;2022-10-31T09:34:46;9.18;;;3.88;;
39156;SDS011;24889;42.424;25.604;2022-10-31T09:37:11;7.22;;;4.55;;
39156;SDS011;24889;42.424;25.604;2022-10-31T09:47:17;26.42;;;6.18;;
39156;SDS011;24889;42.424;25.604;2022-10-31T09:52:18;10.68;;;4.07;;
39156;SDS011;24889;42.424;25.604;2022-10-31T09:54:53;8.75;;;3.47;;
39156;SDS011;24889;42.424;25.604;2022-10-31T09:57:30;10.65;;;3.97;;
39156;SDS011;24889;42.424;25.604;2022-10-31T10:05:02;7.95;;;3.80;;
39156;SDS011;24889;42.424;25.604;2022-10-31T10:10:14;8.80;;;3.25;;
39156;SDS011;24889;42.424;25.604;2022-10-31T10:17:57;7.38;;;3.90;;
39156;SDS011;24889;42.424;25.604;2022-10-31T10:28:41;5.82;;;3.22;;
39156;SDS011;24889;42.424;25.604;2022-10-31T10:31:23;7.53;;;3.55;;
39156;SDS011;24889;42.424;25.604;2022-10-31T10:34:02;6.72;;;3.30;;
39156;SDS011;24889;42.424;25.604;2022-10-31T10:36:48;7.10;;;3.40;;
39156;SDS011;24889;42.424;25.604;2022-10-31T10:39:29;12.70;;;3.75;;
39156;SDS011;24889;42.424;25.604;2022-10-31T10:42:16;10.23;;;3.60;;
39156;SDS011;24889;42.424;25.604;2022-10-31T10:45:06;7.22;;;3.20;;
39156;SDS011;24889;42.424;25.604;2022-10-31T10:48:03;6.20;;;3.78;;
39156;SDS011;24889;42.424;25.604;2022-10-31T10:50:35;39.03;;;6.45;;
39156;SDS011;24889;42.424;25.604;2022-10-31T10:58:20;10.48;;;3.13;;
39156;SDS011;24889;42.424;25.604;2022-10-31T11:03:16;10.50;;;3.30;;
39156;SDS011;24889;42.424;25.604;2022-10-31T11:05:53;15.38;;;3.47;;
39156;SDS011;24889;42.424;25.604;2022-10-31T11:08:25;12.00;;;4.13;;
39156;SDS011;24889;42.424;25.604;2022-10-31T11:13:39;9.77;;;3.50;;
39156;SDS011;24889;42.424;25.604;2022-10-31T11:16:14;6.45;;;3.58;;
39156;SDS011;24889;42.424;25.604;2022-10-31T11:18:52;6.40;;;3.70;;
39156;SDS011;24889;42.424;25.604;2022-10-31T11:21:28;10.68;;;3.50;;
39156;SDS011;24889;42.424;25.604;2022-10-31T11:26:29;12.43;;;4.32;;
39156;SDS011;24889;42.424;25.604;2022-10-31T11:31:24;19.42;;;4.22;;
39156;SDS011;24889;42.424;25.604;2022-10-31T11:33:58;12.57;;;3.85;;
39156;SDS011;24889;42.424;25.604;2022-10-31T11:36:30;6.95;;;3.28;;
39156;SDS011;24889;42.424;25.604;2022-10-31T11:38:58;15.05;;;3.78;;
39156;SDS011;24889;42.424;25.604;2022-10-31T11:41:32;10.13;;;3.13;;
39156;SDS011;24889;42.424;25.604;2022-10-31T11:44:04;8.10;;;3.05;;
39156;SDS011;24889;42.424;25.604;2022-10-31T11:46:38;13.35;;;3.38;;
39156;SDS011;24889;42.424;25.604;2022-10-31T11:49:41;10.65;;;3.70;;
39156;SDS011;24889;42.424;25.604;2022-10-31T11:52:04;11.27;;;3.38;;
39156;SDS011;24889;42.424;25.604;2022-10-31T11:57:28;13.27;;;3.70;;
39156;SDS011;24889;42.424;25.604;2022-10-31T11:59:59;10.93;;;3.28;;
39156;SDS011;24889;42.424;25.604;2022-10-31T12:02:30;11.52;;;3.60;;
39156;SDS011;24889;42.424;25.604;2022-10-31T12:07:33;8.40;;;3.80;;
39156;SDS011;24889;42.424;25.604;2022-10-31T12:15:25;6.63;;;3.58;;
39156;SDS011;24889;42.424;25.604;2022-10-31T12:23:05;9.65;;;3.45;;
39156;SDS011;24889;42.424;25.604;2022-10-31T12:36:54;7.28;;;2.90;;
39156;SDS011;24889;42.424;25.604;2022-10-31T12:39:44;9.63;;;3.17;;
39156;SDS011;24889;42.424;25.604;2022-10-31T12:45:32;10.45;;;3.97;;
39156;SDS011;24889;42.424;25.604;2022-10-31T12:58:40;13.73;;;4.53;;
39156;SDS011;24889;42.424;25.604;2022-10-31T13:01:12;18.25;;;4.50;;
39156;SDS011;24889;42.424;25.604;2022-10-31T13:06:58;15.02;;;4.45;;
39156;SDS011;24889;42.424;25.604;2022-10-31T13:09:38;6.50;;;3.45;;
39156;SDS011;24889;42.424;25.604;2022-10-31T13:12:17;4.82;;;3.17;;
39156;SDS011;24889;42.424;25.604;2022-10-31T13:14:50;6.93;;;3.35;;
39156;SDS011;24889;42.424;25.604;2022-10-31T13:17:25;11.10;;;3.33;;
39156;SDS011;24889;42.424;25.604;2022-10-31T13:23:50;17.00;;;4.45;;
39156;SDS011;24889;42.424;25.604;2022-10-31T13:26:08;19.38;;;4.00;;
39156;SDS011;24889;42.424;25.604;2022-10-31T13:28:41;27.83;;;5.65;;
39156;SDS011;24889;42.424;25.604;2022-10-31T13:31:12;9.75;;;3.33;;
39156;SDS011;24889;42.424;25.604;2022-10-31T13:41:55;16.58;;;4.50;;
39156;SDS011;24889;42.424;25.604;2022-10-31T13:44:27;10.65;;;4.70;;
39156;SDS011;24889;42.424;25.604;2022-10-31T13:46:54;22.58;;;4.68;;
39156;SDS011;24889;42.424;25.604;2022-10-31T13:49:26;12.75;;;4.57;;
39156;SDS011;24889;42.424;25.604;2022-10-31T13:52:05;7.90;;;3.08;;
39156;SDS011;24889;42.424;25.604;2022-10-31T13:54:38;7.68;;;2.53;;
39156;SDS011;24889;42.424;25.604;2022-10-31T14:02:26;13.07;;;3.30;;
39156;SDS011;24889;42.424;25.604;2022-10-31T14:04:56;12.45;;;4.05;;
39156;SDS011;24889;42.424;25.604;2022-10-31T14:07:25;8.40;;;3.47;;
39156;SDS011;24889;42.424;25.604;2022-10-31T14:10:35;12.95;;;3.88;;
39156;SDS011;24889;42.424;25.604;2022-10-31T14:12:44;15.93;;;5.13;;
39156;SDS011;24889;42.424;25.604;2022-10-31T14:15:13;19.45;;;4.78;;
39156;SDS011;24889;42.424;25.604;2022-10-31T14:17:50;14.00;;;4.55;;
39156;SDS011;24889;42.424;25.604;2022-10-31T14:20:21;11.52;;;4.15;;
39156;SDS011;24889;42.424;25.604;2022-10-31T14:22:49;9.02;;;5.15;;
39156;SDS011;24889;42.424;25.604;2022-10-31T14:27:54;32.05;;;7.13;;
39156;SDS011;24889;42.424;25.604;2022-10-31T14:30:22;9.60;;;4.65;;
39156;SDS011;24889;42.424;25.604;2022-10-31T14:33:01;11.40;;;4.78;;
39156;SDS011;24889;42.424;25.604;2022-10-31T14:35:43;10.30;;;5.80;;
39156;SDS011;24889;42.424;25.604;2022-10-31T14:38:34;17.13;;;6.78;;
39156;SDS011;24889;42.424;25.604;2022-10-31T14:41:23;22.73;;;11.63;;
39156;SDS011;24889;42.424;25.604;2022-10-31T14:44:17;14.35;;;7.53;;
39156;SDS011;24889;42.424;25.604;2022-10-31T14:52:05;7.72;;;4.55;;
39156;SDS011;24889;42.424;25.604;2022-10-31T14:54:37;11.93;;;4.95;;
39156;SDS011;24889;42.424;25.604;2022-10-31T14:57:07;11.48;;;5.13;;
39156;SDS011;24889;42.424;25.604;2022-10-31T14:59:41;14.55;;;5.88;;
39156;SDS011;24889;42.424;25.604;2022-10-31T15:02:15;12.70;;;5.82;;
39156;SDS011;24889;42.424;25.604;2022-10-31T15:05:05;13.93;;;6.38;;
39156;SDS011;24889;42.424;25.604;2022-10-31T15:07:33;21.38;;;7.43;;
39156;SDS011;24889;42.424;25.604;2022-10-31T15:10:03;16.20;;;7.65;;
39156;SDS011;24889;42.424;25.604;2022-10-31T15:12:32;11.27;;;6.68;;
39156;SDS011;24889;42.424;25.604;2022-10-31T15:15:11;17.33;;;6.95;;
39156;SDS011;24889;42.424;25.604;2022-10-31T15:17:57;13.45;;;6.72;;
39156;SDS011;24889;42.424;25.604;2022-10-31T15:20:28;11.27;;;6.57;;
39156;SDS011;24889;42.424;25.604;2022-10-31T15:22:55;15.65;;;7.03;;
39156;SDS011;24889;42.424;25.604;2022-10-31T15:25:23;20.55;;;7.60;;
39156;SDS011;24889;42.424;25.604;2022-10-31T15:27:51;15.35;;;9.27;;
39156;SDS011;24889;42.424;25.604;2022-10-31T15:30:22;21.95;;;9.07;;
39156;SDS011;24889;42.424;25.604;2022-10-31T15:32:49;13.60;;;7.53;;
39156;SDS011;24889;42.424;25.604;2022-10-31T15:35:28;15.10;;;8.30;;
39156;SDS011;24889;42.424;25.604;2022-10-31T15:37:56;19.95;;;8.35;;
39156;SDS011;24889;42.424;25.604;2022-10-31T15:40:23;15.27;;;7.47;;
39156;SDS011;24889;42.424;25.604;2022-10-31T15:42:57;17.67;;;7.10;;
39156;SDS011;24889;42.424;25.604;2022-10-31T15:45:26;15.20;;;7.15;;
39156;SDS011;24889;42.424;25.604;2022-10-31T15:47:54;16.58;;;6.78;;
39156;SDS011;24889;42.424;25.604;2022-10-31T15:50:53;14.98;;;6.38;;
39156;SDS011;24889;42.424;25.604;2022-10-31T15:53:27;11.27;;;6.70;;
39156;SDS011;24889;42.424;25.604;2022-10-31T15:55:59;16.77;;;7.00;;
39156;SDS011;24889;42.424;25.604;2022-10-31T15:58:27;21.63;;;7.85;;
39156;SDS011;24889;42.424;25.604;2022-10-31T16:03:28;15.95;;;8.15;;
39156;SDS011;24889;42.424;25.604;2022-10-31T16:05:56;16.20;;;7.80;;
39156;SDS011;24889;42.424;25.604;2022-10-31T16:10:55;18.02;;;9.13;;
39156;SDS011;24889;42.424;25.604;2022-10-31T16:16:25;18.52;;;9.18;;
39156;SDS011;24889;42.424;25.604;2022-10-31T16:21:33;16.95;;;9.98;;
39156;SDS011;24889;42.424;25.604;2022-10-31T16:24:03;12.88;;;6.60;;
39156;SDS011;24889;42.424;25.604;2022-10-31T16:26:37;10.93;;;6.47;;
39156;SDS011;24889;42.424;25.604;2022-10-31T16:29:02;15.40;;;6.97;;
39156;SDS011;24889;42.424;25.604;2022-10-31T16:31:29;15.77;;;8.67;;
39156;SDS011;24889;42.424;25.604;2022-10-31T16:36:39;19.35;;;8.85;;
39156;SDS011;24889;42.424;25.604;2022-10-31T16:39:05;22.50;;;10.05;;
39156;SDS011;24889;42.424;25.604;2022-10-31T16:41:32;16.13;;;8.02;;
39156;SDS011;24889;42.424;25.604;2022-10-31T16:44:01;29.25;;;10.07;;
39156;SDS011;24889;42.424;25.604;2022-10-31T16:46:29;28.33;;;8.82;;
39156;SDS011;24889;42.424;25.604;2022-10-31T16:48:54;11.85;;;7.30;;
39156;SDS011;24889;42.424;25.604;2022-10-31T16:51:20;17.45;;;7.72;;
39156;SDS011;24889;42.424;25.604;2022-10-31T16:53:46;22.33;;;7.32;;
39156;SDS011;24889;42.424;25.604;2022-10-31T16:56:15;16.90;;;7.10;;
39156;SDS011;24889;42.424;25.604;2022-10-31T16:58:43;18.30;;;9.60;;
39156;SDS011;24889;42.424;25.604;2022-10-31T17:01:09;25.92;;;13.35;;
39156;SDS011;24889;42.424;25.604;2022-10-31T17:03:36;28.10;;;15.73;;
39156;SDS011;24889;42.424;25.604;2022-10-31T17:06:02;19.13;;;10.33;;
39156;SDS011;24889;42.424;25.604;2022-10-31T17:08:27;22.67;;;10.65;;
39156;SDS011;24889;42.424;25.604;2022-10-31T17:10:54;14.98;;;9.10;;
39156;SDS011;24889;42.424;25.604;2022-10-31T17:13:24;18.17;;;7.68;;
39156;SDS011;24889;42.424;25.604;2022-10-31T17:15:54;19.00;;;8.80;;
39156;SDS011;24889;42.424;25.604;2022-10-31T17:18:22;16.48;;;9.10;;
39156;SDS011;24889;42.424;25.604;2022-10-31T17:20:48;22.15;;;8.93;;
39156;SDS011;24889;42.424;25.604;2022-10-31T17:23:15;20.58;;;8.35;;
39156;SDS011;24889;42.424;25.604;2022-10-31T17:25:42;21.02;;;9.52;;
39156;SDS011;24889;42.424;25.604;2022-10-31T17:28:14;18.92;;;9.02;;
39156;SDS011;24889;42.424;25.604;2022-10-31T17:30:40;26.48;;;10.73;;
39156;SDS011;24889;42.424;25.604;2022-10-31T17:33:09;17.88;;;9.57;;
39156;SDS011;24889;42.424;25.604;2022-10-31T17:35:36;24.15;;;9.20;;
39156;SDS011;24889;42.424;25.604;2022-10-31T17:38:02;21.20;;;9.63;;
39156;SDS011;24889;42.424;25.604;2022-10-31T17:40:27;19.77;;;8.47;;
39156;SDS011;24889;42.424;25.604;2022-10-31T17:42:54;14.23;;;7.43;;
39156;SDS011;24889;42.424;25.604;2022-10-31T17:45:22;50.10;;;28.27;;
39156;SDS011;24889;42.424;25.604;2022-10-31T17:47:49;29.58;;;14.55;;
39156;SDS011;24889;42.424;25.604;2022-10-31T17:50:16;14.43;;;8.00;;
39156;SDS011;24889;42.424;25.604;2022-10-31T17:52:43;18.92;;;8.80;;
39156;SDS011;24889;42.424;25.604;2022-10-31T17:55:09;14.18;;;6.53;;
39156;SDS011;24889;42.424;25.604;2022-10-31T17:57:36;11.27;;;7.18;;
39156;SDS011;24889;42.424;25.604;2022-10-31T18:00:02;16.75;;;6.65;;
39156;SDS011;24889;42.424;25.604;2022-10-31T18:02:30;12.95;;;6.63;;
39156;SDS011;24889;42.424;25.604;2022-10-31T18:04:55;11.63;;;6.17;;